Time;durP1;ratioP1;P1;durP2;ratioP2;P2;SDS_P1;SDS_P2;PMS_P1;PMS_P2;Temp;Humidity;BMP_temperature;BMP_pressure;BME280_temperature;BME280_humidity;BME280_pressure;Samples;Min_cycle;Max_cycle;Signal;HPM_P1;HPM_P2
2022/07/05 00:00:40;;;;;;;4.00;1.87;;;15.80;99.90;;;;;;4937127;29;20240;-60
2022/07/05 00:03:08;;;;;;;4.30;1.87;;;15.70;99.90;;;;;;4939073;29;20239;-60
2022/07/05 00:05:37;;;;;;;5.87;1.90;;;15.70;99.90;;;;;;4936052;29;20247;-57
2022/07/05 00:08:06;;;;;;;3.67;2.20;;;15.70;99.90;;;;;;4939758;29;20238;-59
2022/07/05 00:10:35;;;;;;;3.30;1.77;;;15.60;99.90;;;;;;4938994;29;20292;-58
2022/07/05 00:13:05;;;;;;;6.33;2.30;;;15.60;99.90;;;;;;4937593;28;20319;-59
2022/07/05 00:15:33;;;;;;;2.70;1.70;;;15.60;99.90;;;;;;4935316;29;20681;-59
2022/07/05 00:18:03;;;;;;;4.43;2.17;;;15.60;99.90;;;;;;4937457;29;20736;-59
2022/07/05 00:20:31;;;;;;;3.57;1.77;;;15.60;99.90;;;;;;4937979;29;20751;-59
2022/07/05 00:22:59;;;;;;;2.97;1.80;;;15.50;99.90;;;;;;4938944;29;20239;-60
2022/07/05 00:25:28;;;;;;;4.07;1.90;;;15.50;99.90;;;;;;4937632;29;20235;-60
2022/07/05 00:27:56;;;;;;;3.47;1.90;;;15.50;99.90;;;;;;4939459;29;21140;-56
2022/07/05 00:30:24;;;;;;;3.67;2.30;;;15.50;99.90;;;;;;4935828;29;20263;-59
2022/07/05 00:32:52;;;;;;;3.33;2.00;;;15.50;99.90;;;;;;4936041;29;20232;-58
2022/07/05 00:35:22;;;;;;;4.87;2.03;;;15.40;99.90;;;;;;4936490;29;20311;-60
2022/07/05 00:37:50;;;;;;;3.17;1.90;;;15.40;99.90;;;;;;4936640;28;20231;-60
2022/07/05 00:40:18;;;;;;;3.40;2.27;;;15.40;99.90;;;;;;4936029;29;20782;-60
2022/07/05 00:42:46;;;;;;;3.27;1.90;;;15.40;99.90;;;;;;4939543;28;20249;-59
2022/07/05 00:45:14;;;;;;;3.37;2.10;;;15.40;99.90;;;;;;4934796;29;20232;-58
2022/07/05 00:47:42;;;;;;;2.73;2.10;;;15.40;99.90;;;;;;4937542;29;20735;-59
2022/07/05 00:50:11;;;;;;;3.93;2.20;;;15.30;99.90;;;;;;4934838;29;20275;-59
2022/07/05 00:52:40;;;;;;;3.10;1.90;;;15.30;99.90;;;;;;4936568;29;20232;-60
2022/07/05 00:55:10;;;;;;;3.30;1.90;;;15.20;99.90;;;;;;4938398;29;20724;-58
2022/07/05 00:57:38;;;;;;;4.23;2.13;;;15.20;99.90;;;;;;4920124;29;20291;-59
2022/07/05 01:00:08;;;;;;;3.23;1.90;;;15.20;99.90;;;;;;4937218;29;20235;-59
2022/07/05 01:02:36;;;;;;;2.60;1.97;;;15.20;99.90;;;;;;4938087;29;20287;-57
2022/07/05 01:05:05;;;;;;;2.30;2.10;;;15.20;99.90;;;;;;4934995;29;20228;-57
2022/07/05 01:07:33;;;;;;;2.00;1.90;;;15.20;99.90;;;;;;4937384;29;20240;-59
2022/07/05 01:10:03;;;;;;;3.33;2.00;;;15.20;99.90;;;;;;4937151;29;20240;-58
2022/07/05 01:12:31;;;;;;;6.77;1.90;;;15.20;99.90;;;;;;4935186;29;20236;-60
2022/07/05 01:14:59;;;;;;;4.17;1.80;;;15.20;99.90;;;;;;4939228;29;20229;-57
2022/07/05 01:17:28;;;;;;;4.43;1.80;;;15.10;99.90;;;;;;4935566;29;20632;-60
2022/07/05 01:19:56;;;;;;;4.33;2.00;;;15.20;99.90;;;;;;4936666;29;20224;-60
2022/07/05 01:22:27;;;;;;;3.30;2.00;;;15.10;99.90;;;;;;4935001;29;20239;-59
2022/07/05 01:24:57;;;;;;;3.07;2.07;;;15.10;99.90;;;;;;4938879;29;20727;-57
2022/07/05 01:27:25;;;;;;;2.07;1.83;;;15.10;99.90;;;;;;4935816;29;20314;-60
2022/07/05 01:29:53;;;;;;;3.90;2.30;;;15.10;99.90;;;;;;4938127;29;20291;-58
2022/07/05 01:32:21;;;;;;;3.47;2.10;;;15.10;99.90;;;;;;4935983;29;20262;-59
2022/07/05 01:34:49;;;;;;;3.00;1.90;;;15.10;99.90;;;;;;4937501;29;20215;-60
2022/07/05 01:37:18;;;;;;;3.37;2.00;;;15.00;99.90;;;;;;4934351;29;20715;-60
2022/07/05 01:39:46;;;;;;;4.07;2.37;;;15.00;99.90;;;;;;4936209;29;20247;-58
2022/07/05 01:42:16;;;;;;;2.80;1.70;;;15.00;99.90;;;;;;4937841;28;20819;-58
2022/07/05 01:44:44;;;;;;;3.33;2.10;;;15.00;99.90;;;;;;4936009;29;20246;-59
2022/07/05 01:47:16;;;;;;;2.93;2.37;;;15.00;99.90;;;;;;4934486;29;20243;-60
2022/07/05 01:49:48;;;;;;;3.67;2.20;;;14.90;99.90;;;;;;4918820;29;20330;-59
2022/07/05 01:52:20;;;;;;;3.93;2.23;;;14.90;99.90;;;;;;4918742;29;20228;-59
2022/07/05 01:54:48;;;;;;;2.43;1.97;;;15.00;99.90;;;;;;4927849;29;20219;-59
2022/07/05 01:57:19;;;;;;;2.73;2.07;;;15.00;99.90;;;;;;4936880;29;20238;-60
2022/07/05 01:59:47;;;;;;;3.73;2.60;;;14.90;99.90;;;;;;4927830;29;20703;-58
2022/07/05 02:02:15;;;;;;;2.40;2.20;;;14.90;99.90;;;;;;4933761;29;20250;-59
2022/07/05 02:04:48;;;;;;;2.43;2.23;;;14.90;99.90;;;;;;4937004;29;20227;-60
2022/07/05 02:07:17;;;;;;;4.17;2.40;;;14.90;99.90;;;;;;4942250;29;20561;-59
2022/07/05 02:09:45;;;;;;;5.33;2.17;;;14.80;99.90;;;;;;4937227;29;20243;-58
2022/07/05 02:12:14;;;;;;;3.07;2.20;;;14.80;99.90;;;;;;4933454;29;20251;-56
2022/07/05 02:14:43;;;;;;;3.13;2.33;;;14.80;99.90;;;;;;4916463;29;20806;-61
2022/07/05 02:17:16;;;;;;;2.93;2.20;;;14.80;99.90;;;;;;4934585;29;20223;-60
2022/07/05 02:19:47;;;;;;;2.90;2.30;;;14.80;99.90;;;;;;4920984;29;20318;-61
2022/07/05 02:22:16;;;;;;;3.70;2.70;;;14.80;99.90;;;;;;4920965;29;20242;-60
2022/07/05 02:24:45;;;;;;;3.60;2.80;;;14.80;99.90;;;;;;4917884;29;20238;-62
2022/07/05 02:27:22;;;;;;;2.87;2.53;;;14.80;99.90;;;;;;4916985;29;20251;-60
2022/07/05 02:29:52;;;;;;;4.73;2.80;;;14.80;99.90;;;;;;4936736;29;20238;-59
2022/07/05 02:32:30;;;;;;;4.10;2.43;;;14.80;99.90;;;;;;4927899;29;20238;-60
2022/07/05 02:34:59;;;;;;;3.80;2.90;;;14.70;99.90;;;;;;4931890;29;20246;-58
2022/07/05 02:37:29;;;;;;;3.37;2.50;;;14.70;99.90;;;;;;4926025;29;20254;-61
2022/07/05 02:39:57;;;;;;;5.87;3.10;;;14.70;99.90;;;;;;4918234;29;20224;-61
2022/07/05 02:42:25;;;;;;;4.47;2.60;;;14.60;99.90;;;;;;4933024;29;20330;-61
2022/07/05 02:44:55;;;;;;;4.00;2.80;;;14.60;99.90;;;;;;4934333;29;20226;-59
2022/07/05 02:47:24;;;;;;;4.13;2.97;;;14.60;99.90;;;;;;4916936;29;20223;-61
2022/07/05 02:49:53;;;;;;;5.33;3.17;;;14.50;99.90;;;;;;4931898;29;20239;-61
2022/07/05 02:52:21;;;;;;;4.33;3.07;;;14.50;99.90;;;;;;4915679;29;20612;-60
2022/07/05 02:54:49;;;;;;;3.77;2.63;;;14.50;99.90;;;;;;4934339;29;20292;-60
2022/07/05 02:57:19;;;;;;;4.83;2.50;;;14.50;99.90;;;;;;4934172;29;20237;-61
2022/07/05 02:59:47;;;;;;;3.43;2.70;;;14.50;99.90;;;;;;4918354;29;20315;-58
2022/07/05 03:02:17;;;;;;;4.33;2.90;;;14.50;99.90;;;;;;4916336;29;20286;-61
2022/07/05 03:04:45;;;;;;;7.37;3.00;;;14.50;99.90;;;;;;4935710;29;20295;-59
2022/07/05 03:07:14;;;;;;;8.17;3.30;;;14.50;99.90;;;;;;4930001;29;20243;-59
2022/07/05 03:09:42;;;;;;;3.30;3.00;;;14.40;99.90;;;;;;4936286;29;20235;-61
2022/07/05 03:12:12;;;;;;;5.50;3.17;;;14.40;99.90;;;;;;4941828;29;20240;-59
2022/07/05 03:14:40;;;;;;;8.43;3.00;;;14.40;99.90;;;;;;4918865;29;20806;-61
2022/07/05 03:17:09;;;;;;;4.33;3.10;;;14.40;99.90;;;;;;4930152;29;20240;-59
2022/07/05 03:19:39;;;;;;;4.00;3.27;;;14.40;99.90;;;;;;4926370;29;20750;-61
2022/07/05 03:22:08;;;;;;;3.83;3.10;;;14.40;99.90;;;;;;4919105;29;20330;-62
2022/07/05 03:24:38;;;;;;;5.80;3.10;;;14.30;99.90;;;;;;4912509;29;20316;-60
2022/07/05 03:27:07;;;;;;;5.03;3.30;;;14.30;99.90;;;;;;4928049;29;20232;-61
2022/07/05 03:29:37;;;;;;;4.73;3.13;;;14.30;99.90;;;;;;4911146;29;20223;-61
2022/07/05 03:32:06;;;;;;;3.73;3.00;;;14.30;99.90;;;;;;4921165;29;20341;-61
2022/07/05 03:34:35;;;;;;;3.30;2.73;;;14.40;99.90;;;;;;4927294;29;20349;-61
2022/07/05 03:37:06;;;;;;;3.17;2.80;;;14.40;99.90;;;;;;4911805;29;20226;-61
2022/07/05 03:39:34;;;;;;;4.03;2.80;;;14.40;99.90;;;;;;4929494;29;20315;-61
2022/07/05 03:42:02;;;;;;;6.33;3.37;;;14.40;99.90;;;;;;4911364;29;20235;-60
2022/07/05 03:44:32;;;;;;;3.67;3.03;;;14.40;99.90;;;;;;4912359;29;20323;-60
2022/07/05 03:47:04;;;;;;;4.53;2.70;;;14.40;99.90;;;;;;4927357;29;20239;-61
2022/07/05 03:49:33;;;;;;;4.90;3.13;;;14.50;99.90;;;;;;4927149;29;20231;-61
2022/07/05 03:52:01;;;;;;;4.63;3.33;;;14.50;99.90;;;;;;4911690;29;20239;-60
2022/07/05 03:54:31;;;;;;;4.23;2.97;;;14.60;99.90;;;;;;4928813;29;20232;-61
2022/07/05 03:57:00;;;;;;;3.10;2.80;;;14.60;99.90;;;;;;4912069;29;20262;-60
2022/07/05 03:59:28;;;;;;;6.57;2.87;;;14.70;99.90;;;;;;4929094;29;20243;-61
2022/07/05 04:01:57;;;;;;;3.10;2.57;;;14.80;99.90;;;;;;4927196;29;20600;-61
2022/07/05 04:04:26;;;;;;;4.50;2.90;;;14.90;99.90;;;;;;4911006;29;20861;-58
2022/07/05 04:06:54;;;;;;;3.90;2.43;;;14.90;99.90;;;;;;4911297;29;20790;-61
2022/07/05 04:09:22;;;;;;;3.80;2.53;;;15.00;99.90;;;;;;4911152;29;20325;-59
2022/07/05 04:11:52;;;;;;;3.00;2.70;;;15.00;99.90;;;;;;4941649;29;20231;-61
2022/07/05 04:14:20;;;;;;;4.33;2.67;;;15.10;99.90;;;;;;4933244;29;20244;-60
2022/07/05 04:16:49;;;;;;;3.27;2.37;;;15.10;99.90;;;;;;4937348;29;20336;-59
2022/07/05 04:19:17;;;;;;;4.10;2.70;;;15.10;99.90;;;;;;4927776;29;20607;-61
2022/07/05 04:21:45;;;;;;;4.40;2.50;;;15.20;99.90;;;;;;4942639;29;20236;-59
2022/07/05 04:24:13;;;;;;;5.37;2.90;;;15.20;99.90;;;;;;4923261;29;20338;-60
2022/07/05 04:26:42;;;;;;;4.10;2.90;;;15.30;99.90;;;;;;4937135;29;20298;-61
2022/07/05 04:29:12;;;;;;;6.30;2.50;;;15.40;99.90;;;;;;4937284;29;20696;-61
2022/07/05 04:31:40;;;;;;;2.90;2.60;;;15.40;99.90;;;;;;4921524;29;20643;-61
2022/07/05 04:34:09;;;;;;;5.07;2.83;;;15.50;99.90;;;;;;4928677;28;20718;-61
2022/07/05 04:36:41;;;;;;;5.70;3.10;;;15.60;99.90;;;;;;4931598;29;20683;-61
2022/07/05 04:39:10;;;;;;;4.03;2.50;;;15.60;99.90;;;;;;4914243;29;20759;-61
2022/07/05 04:41:44;;;;;;;3.77;2.23;;;15.70;99.90;;;;;;4928749;29;20779;-59
2022/07/05 04:44:14;;;;;;;4.23;2.57;;;15.80;99.90;;;;;;4912444;29;20236;-60
2022/07/05 04:46:43;;;;;;;4.37;2.50;;;15.90;99.90;;;;;;4911739;29;20229;-58
2022/07/05 04:49:12;;;;;;;5.40;2.70;;;16.00;99.90;;;;;;4895747;29;20649;-61
2022/07/05 04:51:40;;;;;;;3.00;2.03;;;16.20;99.90;;;;;;4925043;29;20323;-61
2022/07/05 04:54:14;;;;;;;4.50;2.33;;;16.30;99.90;;;;;;4913902;29;20248;-58
2022/07/05 04:56:42;;;;;;;4.10;2.37;;;16.50;99.90;;;;;;4914519;29;20224;-61
2022/07/05 04:59:10;;;;;;;2.47;2.10;;;16.60;99.90;;;;;;4917665;29;20236;-62
2022/07/05 05:01:39;;;;;;;7.23;2.63;;;16.70;99.90;;;;;;4917373;29;20227;-60
2022/07/05 05:04:08;;;;;;;4.47;2.50;;;16.80;99.90;;;;;;4917946;29;20240;-61
2022/07/05 05:06:36;;;;;;;3.20;2.67;;;16.90;99.90;;;;;;4911451;29;20229;-61
2022/07/05 05:09:04;;;;;;;3.90;2.40;;;16.90;99.90;;;;;;4911687;29;20271;-60
2022/07/05 05:11:32;;;;;;;3.20;2.40;;;17.10;99.90;;;;;;4912465;29;20237;-60
2022/07/05 05:14:00;;;;;;;5.20;2.50;;;17.20;99.90;;;;;;4912270;29;20240;-61
2022/07/05 05:16:28;;;;;;;3.90;2.50;;;17.30;99.90;;;;;;4913834;29;20245;-61
2022/07/05 05:18:58;;;;;;;5.20;2.33;;;17.60;99.90;;;;;;4908016;29;20707;-59
2022/07/05 05:21:26;;;;;;;3.03;1.90;;;17.80;99.90;;;;;;4916639;29;20600;-60
2022/07/05 05:23:54;;;;;;;4.53;2.20;;;18.00;99.90;;;;;;4915552;29;20225;-58
2022/07/05 05:26:22;;;;;;;5.30;2.37;;;18.00;99.90;;;;;;4910859;29;20335;-61
2022/07/05 05:28:51;;;;;;;2.53;1.90;;;18.30;99.90;;;;;;4915865;29;20577;-61
2022/07/05 05:31:19;;;;;;;5.83;2.40;;;18.60;99.90;;;;;;4916278;29;20299;-60
2022/07/05 05:33:47;;;;;;;3.63;1.70;;;18.60;99.90;;;;;;4914028;29;20216;-59
2022/07/05 05:36:17;;;;;;;2.33;1.90;;;18.40;99.90;;;;;;4913536;29;20246;-60
2022/07/05 05:38:45;;;;;;;4.63;2.07;;;18.20;99.90;;;;;;4916838;29;20622;-57
2022/07/05 05:41:18;;;;;;;4.37;2.10;;;18.10;99.90;;;;;;4914442;29;20233;-60
2022/07/05 05:43:46;;;;;;;3.47;2.03;;;17.90;99.90;;;;;;4934580;29;20247;-61
2022/07/05 05:46:15;;;;;;;2.60;1.60;;;17.80;99.90;;;;;;4934489;29;20773;-60
2022/07/05 05:48:43;;;;;;;5.30;1.77;;;17.80;99.90;;;;;;4929314;29;20240;-60
2022/07/05 05:51:11;;;;;;;2.00;1.53;;;17.80;99.90;;;;;;4930021;29;20242;-60
2022/07/05 05:53:41;;;;;;;3.53;1.60;;;17.80;99.90;;;;;;4936984;29;20235;-60
2022/07/05 05:56:09;;;;;;;4.13;2.10;;;17.80;99.90;;;;;;4932841;29;20725;-60
2022/07/05 05:58:37;;;;;;;3.87;1.80;;;17.80;99.90;;;;;;4934413;29;20234;-60
2022/07/05 06:01:10;;;;;;;3.47;1.97;;;17.90;99.90;;;;;;4936059;29;20377;-61
2022/07/05 06:03:39;;;;;;;3.47;1.73;;;18.00;99.90;;;;;;4934387;29;20246;-61
2022/07/05 06:06:07;;;;;;;3.23;1.83;;;18.20;99.90;;;;;;4931365;29;20574;-58
2022/07/05 06:08:35;;;;;;;3.50;1.80;;;18.40;99.90;;;;;;4935279;29;20228;-58
2022/07/05 06:11:05;;;;;;;3.90;1.97;;;18.50;99.90;;;;;;4934506;29;20261;-59
2022/07/05 06:13:33;;;;;;;3.53;1.63;;;18.60;99.90;;;;;;4934296;29;20236;-58
2022/07/05 06:16:01;;;;;;;4.93;1.87;;;18.50;99.90;;;;;;4935389;29;20257;-59
2022/07/05 06:18:29;;;;;;;5.47;2.00;;;18.50;99.90;;;;;;4933148;29;20225;-61
2022/07/05 06:20:57;;;;;;;3.70;1.80;;;18.50;99.90;;;;;;4936140;29;20225;-60
2022/07/05 06:23:25;;;;;;;2.50;1.70;;;18.40;99.90;;;;;;4934675;29;20301;-60
2022/07/05 06:25:54;;;;;;;2.80;1.83;;;18.30;99.90;;;;;;4933179;29;20325;-59
2022/07/05 06:28:23;;;;;;;4.03;2.20;;;18.20;99.90;;;;;;4934520;29;20239;-60
2022/07/05 06:30:52;;;;;;;3.40;1.97;;;18.20;99.90;;;;;;4934348;29;20238;-58
2022/07/05 06:33:20;;;;;;;4.37;2.00;;;18.40;99.90;;;;;;4932305;29;20238;-58
2022/07/05 06:35:48;;;;;;;2.27;1.50;;;18.50;99.90;;;;;;4933013;28;20287;-59
2022/07/05 06:38:17;;;;;;;3.70;1.90;;;18.70;99.90;;;;;;4933220;29;20318;-58
2022/07/05 06:40:45;;;;;;;3.00;1.60;;;19.00;99.90;;;;;;4938291;28;20234;-60
2022/07/05 06:43:14;;;;;;;2.13;1.50;;;19.50;99.90;;;;;;4939148;28;20259;-60
2022/07/05 06:45:59;;;;;;;2.60;1.60;;;20.00;99.90;;;;;;4921611;29;20228;-60
2022/07/05 06:48:29;;;;;;;4.93;1.97;;;20.40;99.90;;;;;;4939150;29;20307;-60
2022/07/05 06:50:57;;;;;;;5.37;1.67;;;20.80;99.90;;;;;;4938548;29;20247;-58
2022/07/05 06:53:25;;;;;;;3.57;1.77;;;21.10;99.90;;;;;;4936054;29;20241;-59
2022/07/05 06:55:53;;;;;;;3.00;1.30;;;21.50;99.90;;;;;;4935483;29;20237;-61
2022/07/05 06:58:24;;;;;;;3.27;1.50;;;21.60;99.90;;;;;;4936073;29;20699;-58
2022/07/05 07:00:52;;;;;;;4.07;1.47;;;22.00;99.90;;;;;;4937934;29;20253;-60
2022/07/05 07:03:41;;;;;;;3.07;1.10;;;22.10;99.90;;;;;;4937132;29;20241;-60
2022/07/05 07:06:31;;;;;;;2.93;1.27;;;22.30;99.90;;;;;;4935604;29;20224;-59
2022/07/05 07:09:18;;;;;;;1.83;1.10;;;22.50;99.90;;;;;;4936536;29;20730;-61
2022/07/05 07:11:48;;;;;;;1.60;1.00;;;22.70;99.90;;;;;;4938338;29;20330;-60
2022/07/05 07:14:17;;;;;;;2.23;1.13;;;22.90;99.90;;;;;;4936004;29;20238;-59
2022/07/05 07:16:45;;;;;;;2.20;0.90;;;23.10;99.90;;;;;;4936858;29;20249;-61
2022/07/05 07:19:15;;;;;;;2.77;1.20;;;23.20;99.90;;;;;;4936532;29;20231;-59
2022/07/05 07:21:44;;;;;;;3.10;1.20;;;23.00;99.90;;;;;;4938903;29;20231;-59
2022/07/05 07:24:12;;;;;;;2.07;1.00;;;23.10;99.90;;;;;;4937057;29;20235;-59
2022/07/05 07:29:26;;;;;;;2.23;0.90;;;23.10;99.90;;;;;;4930015;29;20243;-60
2022/07/05 07:31:54;;;;;;;2.80;1.10;;;23.20;99.90;;;;;;4935151;29;20223;-60
2022/07/05 07:34:23;;;;;;;2.63;0.93;;;23.40;99.90;;;;;;4936729;29;20247;-59
2022/07/05 07:36:52;;;;;;;3.33;0.90;;;23.50;99.90;;;;;;4933469;29;20239;-57
2022/07/05 07:39:20;;;;;;;2.10;1.03;;;23.80;99.90;;;;;;4936688;29;20282;-59
2022/07/05 07:41:50;;;;;;;3.80;1.00;;;24.00;99.90;;;;;;4937030;28;20805;-60
2022/07/05 07:44:19;;;;;;;2.57;1.07;;;24.10;99.90;;;;;;4936908;29;20235;-59
2022/07/05 07:46:47;;;;;;;2.43;0.93;;;24.10;99.90;;;;;;4935388;29;20227;-59
2022/07/05 07:49:15;;;;;;;2.93;1.00;;;24.10;99.90;;;;;;4938602;28;20876;-59
2022/07/05 07:51:45;;;;;;;1.67;1.00;;;23.90;99.90;;;;;;4934916;29;20239;-59
2022/07/05 07:54:13;;;;;;;1.47;0.97;;;24.50;99.90;;;;;;4933292;29;20274;-59
2022/07/05 07:56:42;;;;;;;0.80;0.50;;;24.80;99.90;;;;;;4931697;29;20683;-60
2022/07/05 07:59:11;;;;;;;1.77;0.70;;;24.40;99.90;;;;;;4933910;29;20224;-58
2022/07/05 08:01:39;;;;;;;3.47;0.90;;;24.20;99.90;;;;;;4933311;29;20240;-60
2022/07/05 08:04:14;;;;;;;1.30;0.70;;;24.20;99.90;;;;;;4936592;29;20235;-59
2022/07/05 08:06:45;;;;;;;1.60;0.70;;;24.20;99.90;;;;;;4936916;29;20235;-59
2022/07/05 08:09:13;;;;;;;2.90;0.53;;;24.50;99.90;;;;;;4940768;29;20258;-59
2022/07/05 08:11:46;;;;;;;1.73;0.53;;;24.60;99.90;;;;;;4940739;29;20250;-59
2022/07/05 08:14:14;;;;;;;0.87;0.60;;;24.40;99.90;;;;;;4940064;29;20245;-58
2022/07/05 08:16:42;;;;;;;2.57;0.77;;;24.00;99.90;;;;;;4939706;29;20235;-57
2022/07/05 08:22:07;;;;;;;1.13;0.60;;;22.90;99.90;;;;;;4935896;29;20259;-59
2022/07/05 08:24:37;;;;;;;1.13;0.70;;;22.30;99.90;;;;;;4927572;29;20616;-60
2022/07/05 08:27:06;;;;;;;2.50;0.87;;;21.90;99.90;;;;;;4931023;29;20239;-60
2022/07/05 08:29:34;;;;;;;2.93;0.90;;;21.60;99.90;;;;;;4931214;29;20244;-59
2022/07/05 08:32:02;;;;;;;1.67;0.60;;;21.40;99.90;;;;;;4931645;29;20605;-59
2022/07/05 08:34:31;;;;;;;1.30;0.70;;;21.40;99.90;;;;;;4932429;29;20239;-60
2022/07/05 08:36:59;;;;;;;2.33;0.90;;;21.50;99.90;;;;;;4930379;29;20259;-59
2022/07/05 08:39:29;;;;;;;2.87;0.83;;;21.70;99.90;;;;;;4931676;29;20250;-59
2022/07/05 08:41:59;;;;;;;2.93;0.67;;;21.80;99.90;;;;;;4932319;29;20572;-60
2022/07/05 08:44:29;;;;;;;2.23;0.70;;;21.90;99.90;;;;;;4929216;29;20246;-59
2022/07/05 08:46:59;;;;;;;1.60;0.60;;;22.00;99.90;;;;;;4929396;29;20243;-60
2022/07/05 08:49:28;;;;;;;1.70;0.67;;;21.90;99.90;;;;;;4929394;28;20243;-60
2022/07/05 08:51:59;;;;;;;1.87;0.63;;;22.10;99.90;;;;;;4930904;29;20263;-60
2022/07/05 08:54:29;;;;;;;2.63;0.60;;;22.10;99.90;;;;;;4931048;29;20292;-59
2022/07/05 08:56:57;;;;;;;1.87;0.70;;;22.20;99.90;;;;;;4930211;29;20240;-59
2022/07/05 08:59:42;;;;;;;1.03;0.60;;;22.20;99.90;;;;;;4931167;28;20587;-58
2022/07/05 09:02:13;;;;;;;2.77;0.80;;;22.10;99.90;;;;;;4936942;29;20243;-58
2022/07/05 09:04:46;;;;;;;2.33;0.70;;;22.20;99.90;;;;;;4937582;29;20732;-59
2022/07/05 09:07:17;;;;;;;3.30;0.80;;;22.40;99.90;;;;;;4936655;29;20233;-59
2022/07/05 09:09:51;;;;;;;1.33;0.63;;;23.10;99.90;;;;;;4939371;29;20246;-59
2022/07/05 09:12:20;;;;;;;2.03;0.70;;;23.90;99.90;;;;;;4934078;29;20223;-60
2022/07/05 09:14:54;;;;;;;1.27;0.60;;;24.40;99.90;;;;;;4932490;28;20674;-59
2022/07/05 09:17:22;;;;;;;2.00;0.77;;;24.90;99.90;;;;;;4929102;29;20969;-58
2022/07/05 09:20:07;;;;;;;2.57;0.60;;;25.50;99.90;;;;;;4930518;29;20285;-59
2022/07/05 09:22:48;;;;;;;1.50;0.60;;;25.40;99.90;;;;;;4928552;29;20237;-58
2022/07/05 09:25:20;;;;;;;0.77;0.50;;;25.60;99.90;;;;;;4928879;29;20715;-59
2022/07/05 09:27:53;;;;;;;2.57;0.70;;;25.40;99.90;;;;;;4930256;29;20237;-57
2022/07/05 09:30:41;;;;;;;1.33;0.43;;;25.00;99.90;;;;;;4928461;28;20228;-59
2022/07/05 09:33:10;;;;;;;2.23;0.40;;;25.00;99.90;;;;;;4928889;29;20252;-58
2022/07/05 09:35:40;;;;;;;1.27;0.60;;;25.50;99.90;;;;;;4927354;29;20307;-59
2022/07/05 09:38:18;;;;;;;1.30;0.40;;;26.40;99.90;;;;;;4937391;29;20235;-59
2022/07/05 09:40:49;;;;;;;1.40;0.50;;;26.80;99.90;;;;;;4937447;29;20317;-58
2022/07/05 09:43:18;;;;;;;1.33;0.50;;;26.30;99.40;;;;;;4938416;29;20776;-57
2022/07/05 09:45:58;;;;;;;1.13;0.40;;;25.70;99.90;;;;;;4933458;29;20241;-59
2022/07/05 09:48:27;;;;;;;2.17;0.40;;;25.10;99.90;;;;;;4937176;29;20240;-58
2022/07/05 09:51:09;;;;;;;1.27;0.50;;;25.30;99.90;;;;;;4937655;29;20266;-58
2022/07/05 09:53:59;;;;;;;0.73;0.47;;;26.10;99.90;;;;;;4933471;28;20260;-58
2022/07/05 09:56:31;;;;;;;1.83;0.57;;;26.60;98.60;;;;;;4930751;29;20234;-58
2022/07/05 09:59:20;;;;;;;0.63;0.40;;;27.20;97.50;;;;;;4941167;29;20236;-59
2022/07/05 10:01:50;;;;;;;0.67;0.50;;;26.90;98.10;;;;;;4940383;29;20238;-59
2022/07/05 10:04:19;;;;;;;1.73;0.30;;;26.50;98.10;;;;;;4940915;29;20630;-59
2022/07/05 10:06:47;;;;;;;2.73;0.50;;;26.50;97.40;;;;;;4938501;29;20244;-57
2022/07/05 10:09:16;;;;;;;0.87;0.37;;;27.00;97.30;;;;;;4937813;29;20241;-57
2022/07/05 10:11:46;;;;;;;2.43;0.60;;;27.50;95.30;;;;;;4940249;29;20923;-59
2022/07/05 10:14:21;;;;;;;0.93;0.57;;;27.50;95.50;;;;;;4938249;29;20711;-59
2022/07/05 10:16:57;;;;;;;3.13;0.40;;;27.10;95.60;;;;;;4938110;29;20234;-57
2022/07/05 10:19:33;;;;;;;2.83;0.60;;;26.50;95.80;;;;;;4939602;29;20729;-58
2022/07/05 10:22:02;;;;;;;1.73;0.50;;;25.80;97.40;;;;;;4940856;29;20293;-58
2022/07/05 10:24:48;;;;;;;2.73;0.60;;;25.00;98.20;;;;;;4940252;29;20252;-59
2022/07/05 10:27:19;;;;;;;0.40;0.37;;;24.90;99.10;;;;;;4937807;29;20236;-58
2022/07/05 10:29:50;;;;;;;0.93;0.50;;;24.90;99.00;;;;;;4940673;29;20288;-59
2022/07/05 10:32:20;;;;;;;0.60;0.40;;;25.00;98.80;;;;;;4939799;28;20329;-59
2022/07/05 10:34:49;;;;;;;1.17;0.40;;;25.00;99.20;;;;;;4939986;29;20225;-59
2022/07/05 10:37:23;;;;;;;1.13;0.40;;;24.80;99.30;;;;;;4936439;28;20252;-59
2022/07/05 10:39:51;;;;;;;1.07;0.60;;;24.60;99.60;;;;;;4941118;29;20229;-59
2022/07/05 10:42:22;;;;;;;2.30;0.50;;;24.20;99.90;;;;;;4939201;28;20244;-59
2022/07/05 10:44:50;;;;;;;0.70;0.40;;;24.00;99.90;;;;;;4938963;29;20271;-59
2022/07/05 10:47:18;;;;;;;2.80;0.50;;;23.90;99.90;;;;;;4934616;29;20686;-60
2022/07/05 10:50:02;;;;;;;1.07;0.60;;;24.10;99.90;;;;;;4938171;29;20322;-58
2022/07/05 10:52:30;;;;;;;1.83;0.57;;;24.60;99.90;;;;;;4929768;29;20750;-59
2022/07/05 10:55:21;;;;;;;0.97;0.50;;;25.20;99.90;;;;;;4928676;29;20250;-57
2022/07/05 10:58:36;;;;;;;1.40;0.50;;;25.90;99.90;;;;;;4933355;29;20263;-59
2022/07/05 11:01:32;;;;;;;2.30;0.60;;;27.00;99.00;;;;;;4860771;29;20248;-58
2022/07/05 11:04:35;;;;;;;2.33;0.50;;;27.60;97.70;;;;;;4859975;29;20737;-59
2022/07/05 11:07:04;;;;;;;1.40;0.67;;;28.40;96.60;;;;;;4932397;29;20242;-58
2022/07/05 11:09:32;;;;;;;2.23;0.60;;;28.20;96.20;;;;;;4936989;29;20236;-59
2022/07/05 11:12:06;;;;;;;0.97;0.60;;;27.70;95.90;;;;;;4935640;29;20354;-59
2022/07/05 11:15:07;;;;;;;2.00;0.50;;;27.00;94.60;;;;;;4937761;29;20262;-62
2022/07/05 11:17:36;;;;;;;2.23;0.50;;;26.60;96.40;;;;;;4928216;29;20246;-58
2022/07/05 11:20:30;;;;;;;4.33;0.70;;;26.50;96.90;;;;;;4928651;29;20652;-58
2022/07/05 11:23:21;;;;;;;1.63;0.80;;;26.90;97.40;;;;;;4928814;29;20604;-59
2022/07/05 11:25:50;;;;;;;1.43;0.70;;;27.20;96.00;;;;;;4927303;29;20313;-59
2022/07/05 11:28:22;;;;;;;2.10;0.60;;;26.50;96.10;;;;;;4928261;29;20576;-59
2022/07/05 11:30:59;;;;;;;3.07;1.10;;;26.10;97.70;;;;;;4928234;29;20244;-59
2022/07/05 11:33:35;;;;;;;1.23;0.50;;;25.60;97.90;;;;;;4929239;29;20262;-58
2022/07/05 11:36:06;;;;;;;1.83;0.70;;;26.10;98.30;;;;;;4927730;29;20323;-59
2022/07/05 11:38:34;;;;;;;0.73;0.43;;;26.40;97.80;;;;;;4929451;29;20226;-57
2022/07/05 11:41:23;;;;;;;2.33;0.53;;;26.80;97.00;;;;;;4933939;28;21139;-57
2022/07/05 11:43:59;;;;;;;2.37;0.80;;;26.70;97.00;;;;;;4935159;29;20254;-59
2022/07/05 11:46:30;;;;;;;1.80;0.53;;;26.40;97.10;;;;;;4934631;29;20650;-58
2022/07/05 11:49:23;;;;;;;0.73;0.50;;;25.90;97.10;;;;;;4936823;29;20236;-58
2022/07/05 11:51:56;;;;;;;2.30;0.60;;;25.40;97.50;;;;;;4938539;29;20860;-59
2022/07/05 11:54:25;;;;;;;2.20;0.70;;;25.00;98.50;;;;;;4933821;29;20352;-58
2022/07/05 11:56:53;;;;;;;2.40;0.83;;;25.10;98.40;;;;;;4932527;29;20234;-59
2022/07/05 11:59:24;;;;;;;0.83;0.50;;;24.80;98.60;;;;;;4937333;29;20272;-59
2022/07/05 12:01:54;;;;;;;1.20;0.50;;;24.80;99.10;;;;;;4935432;29;20680;-59
2022/07/05 12:04:24;;;;;;;1.40;0.57;;;25.00;99.50;;;;;;4937147;28;20241;-58
2022/07/05 12:06:52;;;;;;;1.33;0.70;;;25.30;99.70;;;;;;4929161;29;20265;-59
2022/07/05 12:09:25;;;;;;;0.73;0.50;;;25.40;99.30;;;;;;4928945;29;20287;-58
2022/07/05 12:14:49;;;;;;;1.00;0.57;;;25.00;99.60;;;;;;4928740;29;20226;-59
2022/07/05 12:17:19;;;;;;;2.40;0.57;;;25.10;99.20;;;;;;4929557;29;20241;-59
2022/07/05 12:19:54;;;;;;;1.57;0.60;;;25.40;99.90;;;;;;4928611;29;20242;-59
2022/07/05 12:22:30;;;;;;;2.73;0.80;;;25.40;98.50;;;;;;4929178;29;20244;-59
2022/07/05 12:25:00;;;;;;;2.47;0.60;;;25.30;98.50;;;;;;4930669;29;20234;-58
2022/07/05 12:27:29;;;;;;;1.77;0.60;;;25.00;98.00;;;;;;4927816;29;20631;-59
2022/07/05 12:29:58;;;;;;;2.40;0.67;;;24.70;99.10;;;;;;4927988;29;20550;-59
2022/07/05 12:32:28;;;;;;;1.17;0.70;;;24.80;99.10;;;;;;4927946;29;20225;-59
2022/07/05 12:34:57;;;;;;;2.97;0.83;;;24.70;99.00;;;;;;4929945;29;20767;-57
2022/07/05 12:37:33;;;;;;;2.20;0.73;;;24.60;98.50;;;;;;4936990;29;20484;-56
2022/07/05 12:40:07;;;;;;;2.33;0.70;;;24.40;99.10;;;;;;4939437;29;20577;-58
2022/07/05 12:42:37;;;;;;;1.83;0.70;;;24.00;99.70;;;;;;4941402;28;20288;-56
2022/07/05 12:45:12;;;;;;;0.83;0.70;;;23.60;99.90;;;;;;4940890;29;20260;-59
2022/07/05 12:47:53;;;;;;;1.53;0.80;;;23.30;99.90;;;;;;4931098;28;20255;-57
2022/07/05 12:50:23;;;;;;;1.87;0.70;;;23.00;99.90;;;;;;4933953;29;20589;-59
2022/07/05 12:53:00;;;;;;;2.57;0.70;;;22.70;99.90;;;;;;4940103;29;20255;-59
2022/07/05 12:58:21;;;;;;;1.57;0.63;;;22.00;99.90;;;;;;4943604;28;20223;-59
2022/07/05 13:00:49;;;;;;;1.53;0.60;;;21.70;99.90;;;;;;4943335;29;20595;-59
2022/07/05 13:03:19;;;;;;;1.70;0.70;;;21.70;99.90;;;;;;4942995;29;20725;-58
2022/07/05 13:06:01;;;;;;;1.10;0.70;;;21.90;99.90;;;;;;4936953;29;20730;-56
2022/07/05 13:08:30;;;;;;;1.87;0.60;;;22.40;99.90;;;;;;4942674;29;20235;-57
2022/07/05 13:10:58;;;;;;;2.23;0.80;;;22.70;99.90;;;;;;4942495;28;20223;-58
2022/07/05 13:13:26;;;;;;;1.97;0.73;;;23.10;99.90;;;;;;4941452;29;21059;-57
2022/07/05 13:15:55;;;;;;;1.70;0.70;;;23.20;99.90;;;;;;4937857;29;20279;-58
2022/07/05 13:18:27;;;;;;;5.33;0.80;;;23.10;99.90;;;;;;4940928;29;20240;-55